Terminal Aerodrome Forecast
Issued by NWS Binghamton, NY

Home | Current Version | Previous Version | Text Only | Print | Product List | Glossary On
Versions: 1 2 3 4 5 6 7 8 9 10 11 12 13 14 15 16 17 18 19 20 21
713
FTUS41 KBGM 030411 AAA
TAFSYR
TAF AMD
KSYR 030411Z 0304/0324 28012KT P6SM OVC035
      TEMPO 0304/0308 -RASN OVC025
     FM030800 30012G18KT 4SM -SHRASN OVC015
     FM031600 30012G18KT P6SM -SHRA OVC020
     FM032000 30009G16KT P6SM OVC035=

USA.gov is the U.S. government's official web portal to all federal, state and local government web resources and services.